createdAt,value
2018-04-22T00:01:43.517Z,80.02
2018-04-22T00:02:43.578Z,80.11
2018-04-22T00:04:36.576Z,79.64
2018-04-22T00:05:36.634Z,79.44
2018-04-22T00:07:29.629Z,79.25
2018-04-22T00:08:29.712Z,79.06
2018-04-22T00:10:23.185Z,79.93
2018-04-22T00:11:23.552Z,79.35
2018-04-22T00:13:16.234Z,79.64
2018-04-22T00:14:16.295Z,79.83
2018-04-22T00:16:09.297Z,78.49
2018-04-22T00:17:09.352Z,80.30
2018-04-22T00:19:02.346Z,79.54
2018-04-22T00:20:02.411Z,79.73
2018-04-22T00:21:55.408Z,79.64
2018-04-22T00:22:55.464Z,79.64
2018-04-22T00:24:48.496Z,79.83
2018-04-22T00:25:48.555Z,79.54
2018-04-22T00:27:41.553Z,79.73
2018-04-22T00:28:41.606Z,79.16
2018-04-22T00:30:34.597Z,79.25
2018-04-22T00:31:34.660Z,79.73
2018-04-22T00:33:27.656Z,79.83
2018-04-22T00:34:27.714Z,79.64
2018-04-22T00:36:20.718Z,78.97
2018-04-22T00:37:20.763Z,79.73
2018-04-22T00:39:13.764Z,79.69
2018-04-22T00:40:13.825Z,80.21
2018-04-22T00:42:06.828Z,79.88
2018-04-22T00:43:06.885Z,79.64
2018-04-22T00:45:00.381Z,79.44
2018-04-22T00:46:00.443Z,79.31
2018-04-22T00:47:53.437Z,79.98
2018-04-22T00:48:53.495Z,79.83
2018-04-22T00:50:46.480Z,79.41
2018-04-22T00:51:46.543Z,79.54
2018-04-22T00:53:39.541Z,79.50
2018-04-22T00:54:39.594Z,79.88
2018-04-22T00:56:32.597Z,80.17
2018-04-22T00:57:32.649Z,79.98
2018-04-22T00:59:26.142Z,79.60
2018-04-22T01:00:26.204Z,79.79
2018-04-22T01:02:19.193Z,79.88
2018-04-22T01:03:19.257Z,80.17
2018-04-22T01:05:12.244Z,80.27
2018-04-22T01:06:12.294Z,79.98
2018-04-22T01:08:05.299Z,80.17
2018-04-22T01:09:05.355Z,79.98
2018-04-22T01:10:58.341Z,79.98
2018-04-22T01:11:58.403Z,80.36
2018-04-22T01:13:51.402Z,79.79
2018-04-22T01:14:51.455Z,80.55
2018-04-22T01:16:44.468Z,80.65
2018-04-22T01:17:44.508Z,79.65
2018-04-22T01:19:37.493Z,80.51
2018-04-22T01:20:37.555Z,80.22
2018-04-22T01:22:30.591Z,80.13
2018-04-22T01:23:30.636Z,80.04
2018-04-22T01:25:23.623Z,80.22
2018-04-22T01:26:23.687Z,80.22
2018-04-22T01:28:16.680Z,80.51
2018-04-22T01:29:16.735Z,80.13
2018-04-22T01:31:09.734Z,80.04
2018-04-22T01:32:09.787Z,80.41
2018-04-22T01:34:02.792Z,80.32
2018-04-22T01:35:02.848Z,80.32
2018-04-22T01:36:55.845Z,79.94
2018-04-22T01:37:55.897Z,80.32
2018-04-22T01:39:48.890Z,80.32
2018-04-22T01:40:48.949Z,80.22
2018-04-22T01:42:41.946Z,79.94
2018-04-22T01:43:41.998Z,80.70
2018-04-22T01:45:34.989Z,80.04
2018-04-22T01:46:35.058Z,79.85
2018-04-22T01:48:28.053Z,80.32
2018-04-22T01:49:28.104Z,80.22
2018-04-22T01:51:21.092Z,80.22
2018-04-22T01:52:21.153Z,80.51
2018-04-22T01:54:14.151Z,80.22
2018-04-22T01:55:14.202Z,80.22
2018-04-22T01:57:07.195Z,80.41
2018-04-22T01:58:07.250Z,79.94
2018-04-22T02:00:00.238Z,79.94
2018-04-22T02:01:00.299Z,80.04
2018-04-22T02:02:53.295Z,79.99
2018-04-22T02:03:53.349Z,80.47
2018-04-22T02:05:46.336Z,79.99
2018-04-22T02:06:46.399Z,80.28
2018-04-22T02:08:39.394Z,79.90
2018-04-22T02:09:39.446Z,79.90
2018-04-22T02:11:32.435Z,80.09
2018-04-22T02:12:32.497Z,79.52
2018-04-22T02:14:25.494Z,79.61
2018-04-22T02:15:25.547Z,79.99
2018-04-22T02:17:18.540Z,79.80
2018-04-22T02:18:18.596Z,79.33
2018-04-22T02:20:11.581Z,79.43
2018-04-22T02:21:11.641Z,79.43
2018-04-22T02:23:04.638Z,79.90
2018-04-22T02:24:04.692Z,79.52
2018-04-22T02:25:57.675Z,79.43
2018-04-22T02:26:57.739Z,79.52
2018-04-22T02:28:50.738Z,79.23
2018-04-22T02:29:50.789Z,79.43
2018-04-22T02:31:43.786Z,79.90
2018-04-22T02:32:43.838Z,79.99
2018-04-22T02:34:36.851Z,79.43
2018-04-22T02:35:36.886Z,80.09
2018-04-22T02:37:29.883Z,79.61
2018-04-22T02:38:29.934Z,79.71
2018-04-22T02:40:22.933Z,79.86
2018-04-22T02:41:22.986Z,79.33
2018-04-22T02:43:15.980Z,79.80
2018-04-22T02:44:16.032Z,79.23
2018-04-22T02:46:09.026Z,79.90
2018-04-22T02:47:09.083Z,79.33
2018-04-22T02:49:02.076Z,79.71
2018-04-22T02:50:02.131Z,79.61
2018-04-22T02:51:55.116Z,79.33
2018-04-22T02:52:55.180Z,79.52
2018-04-22T02:54:48.178Z,79.52
2018-04-22T02:55:48.235Z,79.23
2018-04-22T02:57:41.236Z,79.77
2018-04-22T02:58:41.289Z,79.86
2018-04-22T03:00:34.287Z,79.77
2018-04-22T03:01:34.341Z,79.77
2018-04-22T03:03:27.341Z,79.23
2018-04-22T03:04:27.388Z,80.15
2018-04-22T03:06:20.377Z,79.19
2018-04-22T03:07:20.436Z,78.91
2018-04-22T03:09:13.433Z,79.67
2018-04-22T03:10:13.498Z,79.67
2018-04-22T03:12:06.479Z,79.67
2018-04-22T03:13:06.545Z,79.38
2018-04-22T03:14:59.551Z,79.77
2018-04-22T03:15:59.608Z,79.77
2018-04-22T03:17:52.603Z,79.96
2018-04-22T03:18:52.660Z,79.10
2018-04-22T03:20:45.646Z,79.28
2018-04-22T03:21:45.708Z,79.86
2018-04-22T03:23:39.206Z,79.57
2018-04-22T03:24:39.268Z,79.57
2018-04-22T03:26:32.250Z,79.00
2018-04-22T03:27:32.311Z,79.38
2018-04-22T03:29:25.306Z,79.38
2018-04-22T03:30:25.357Z,79.67
2018-04-22T03:32:18.342Z,79.00
2018-04-22T03:33:18.404Z,79.77
2018-04-22T03:35:11.400Z,79.38
2018-04-22T03:36:11.451Z,79.48
2018-04-22T03:38:04.448Z,79.57
2018-04-22T03:39:04.501Z,79.38
2018-04-22T03:40:57.489Z,79.86
2018-04-22T03:41:57.558Z,78.91
2018-04-22T03:43:50.545Z,79.57
2018-04-22T03:44:50.597Z,79.28
2018-04-22T03:46:43.584Z,79.00
2018-04-22T03:47:43.645Z,79.28
2018-04-22T03:49:36.641Z,79.19
2018-04-22T03:50:36.693Z,79.28
2018-04-22T03:52:29.682Z,79.57
2018-04-22T03:53:29.743Z,78.52
2018-04-22T03:55:22.741Z,79.38
2018-04-22T03:56:22.791Z,79.00
2018-04-22T03:58:15.779Z,79.57
2018-04-22T03:59:15.837Z,79.10
2018-04-22T04:01:08.824Z,79.10
2018-04-22T04:02:08.885Z,79.19
2018-04-22T04:04:01.880Z,79.38
2018-04-22T04:05:01.935Z,79.10
2018-04-22T04:06:54.917Z,79.57
2018-04-22T04:07:54.979Z,79.19
2018-04-22T04:09:47.979Z,79.38
2018-04-22T04:10:48.036Z,79.48
2018-04-22T04:12:41.031Z,79.77
2018-04-22T04:13:41.095Z,79.38
2018-04-22T04:15:34.086Z,79.48
2018-04-22T04:16:34.143Z,79.19
2018-04-22T04:18:27.128Z,79.38
2018-04-22T04:19:27.185Z,80.05
2018-04-22T04:21:20.173Z,79.38
2018-04-22T04:22:20.249Z,79.48
2018-04-22T04:24:13.735Z,79.38
2018-04-22T04:25:13.788Z,79.28
2018-04-22T04:27:06.784Z,79.61
2018-04-22T04:28:06.845Z,79.86
2018-04-22T04:29:59.839Z,79.28
2018-04-22T04:30:59.890Z,79.90
2018-04-22T04:32:52.879Z,79.23
2018-04-22T04:33:52.939Z,79.14
2018-04-22T04:35:45.935Z,79.28
2018-04-22T04:36:45.986Z,79.19
2018-04-22T04:38:39.010Z,79.38
2018-04-22T04:39:39.034Z,79.28
2018-04-22T04:41:32.025Z,79.38
2018-04-22T04:42:32.090Z,79.48
2018-04-22T04:44:25.082Z,79.86
2018-04-22T04:45:25.137Z,79.57
2018-04-22T04:47:18.122Z,79.61
2018-04-22T04:48:18.187Z,79.99
2018-04-22T04:50:11.196Z,79.86
2018-04-22T04:51:11.251Z,79.33
2018-04-22T04:53:04.238Z,79.80
2018-04-22T04:54:04.299Z,79.19
2018-04-22T04:55:57.294Z,79.28
2018-04-22T04:56:57.347Z,79.48
2018-04-22T04:58:50.337Z,79.77
2018-04-22T04:59:50.392Z,79.77
2018-04-22T05:01:43.379Z,79.57
2018-04-22T05:02:43.441Z,79.80
2018-04-22T05:04:36.441Z,79.71
2018-04-22T05:05:36.511Z,79.52
2018-04-22T05:07:29.482Z,79.90
2018-04-22T05:08:29.545Z,79.99
2018-04-22T05:10:22.541Z,79.52
2018-04-22T05:11:22.840Z,79.61
2018-04-22T05:13:15.579Z,79.61
2018-04-22T05:14:15.640Z,79.61
2018-04-22T05:16:08.635Z,80.09
2018-04-22T05:17:08.687Z,79.71
2018-04-22T05:19:01.678Z,79.52
2018-04-22T05:20:01.736Z,79.90
2018-04-22T05:21:54.756Z,79.43
2018-04-22T05:22:54.785Z,79.80
2018-04-22T05:24:47.806Z,78.94
2018-04-22T05:25:47.837Z,79.33
2018-04-22T05:27:40.817Z,79.80
2018-04-22T05:28:41.176Z,79.90
2018-04-22T05:30:33.976Z,79.90
2018-04-22T05:31:33.945Z,79.80
2018-04-22T05:33:26.953Z,79.85
2018-04-22T05:34:26.994Z,80.04
2018-04-22T05:36:19.977Z,79.85
2018-04-22T05:37:20.034Z,79.75
2018-04-22T05:39:13.128Z,80.04
2018-04-22T05:40:13.081Z,79.85
2018-04-22T05:42:06.077Z,79.65
2018-04-22T05:43:06.136Z,79.46
2018-04-22T05:44:59.133Z,79.27
2018-04-22T05:45:59.186Z,79.75
2018-04-22T05:47:52.172Z,79.69
2018-04-22T05:48:52.234Z,79.79
2018-04-22T05:50:45.246Z,79.41
2018-04-22T05:51:45.822Z,79.31
2018-04-22T05:53:38.291Z,79.83
2018-04-22T05:54:38.351Z,79.35
2018-04-22T05:56:31.351Z,79.06
2018-04-22T05:57:31.406Z,80.59
2018-04-22T05:59:24.595Z,79.64
2018-04-22T06:00:24.456Z,79.20
2018-04-22T06:02:17.482Z,79.29
2018-04-22T06:03:17.509Z,79.49
2018-04-22T06:05:10.502Z,78.81
2018-04-22T06:06:10.557Z,79.77
2018-04-22T06:08:03.548Z,78.66
2018-04-22T06:09:03.609Z,78.95
2018-04-22T06:10:56.607Z,78.76
2018-04-22T06:11:56.674Z,78.76
2018-04-22T06:13:49.649Z,79.10
2018-04-22T06:14:49.711Z,79.14
2018-04-22T06:16:42.711Z,79.37
2018-04-22T06:17:42.764Z,78.99
2018-04-22T06:19:35.765Z,79.51
2018-04-22T06:20:35.814Z,78.59
2018-04-22T06:22:29.310Z,78.28
2018-04-22T06:23:29.375Z,77.51
2018-04-22T06:25:22.379Z,73.37
2018-04-22T06:26:22.436Z,73.02
2018-04-22T06:28:15.453Z,71.55
2018-04-22T06:29:15.488Z,71.87
2018-04-22T06:31:08.988Z,69.75
2018-04-22T06:32:09.048Z,70.94
2018-04-22T06:34:02.046Z,70.27
2018-04-22T06:35:02.103Z,69.89
2018-04-22T06:36:55.107Z,74.23
2018-04-22T06:37:55.167Z,75.45
2018-04-22T06:39:48.166Z,76.65
2018-04-22T06:40:48.221Z,77.38
2018-04-22T06:42:41.225Z,78.15
2018-04-22T06:43:41.291Z,78.44
2018-04-22T06:45:34.291Z,78.00
2018-04-22T06:46:34.346Z,77.46
2018-04-22T06:48:27.845Z,77.11
2018-04-22T06:49:27.908Z,73.86
2018-04-22T06:51:20.908Z,60.94
2018-04-22T06:52:20.964Z,59.78
2018-04-22T06:54:13.965Z,58.75
2018-04-22T06:55:14.023Z,58.97
2018-04-22T06:57:07.027Z,57.65
2018-04-22T06:58:07.089Z,57.05
2018-04-22T07:00:00.082Z,55.78
2018-04-22T07:01:00.143Z,54.94
2018-04-22T07:02:53.651Z,53.11
2018-04-22T07:03:53.713Z,53.08
2018-04-22T07:05:46.718Z,53.47
2018-04-22T07:06:46.778Z,52.98
2018-04-22T07:08:39.781Z,54.86
2018-04-22T07:09:39.852Z,55.79
2018-04-22T07:11:32.866Z,58.27
2018-04-22T07:12:32.927Z,59.62
2018-04-22T07:14:25.934Z,58.72
2018-04-22T07:15:25.997Z,56.11
2018-04-22T07:17:19.002Z,56.04
2018-04-22T07:18:19.064Z,55.33
2018-04-22T07:20:12.073Z,52.17
2018-04-22T07:21:12.133Z,51.42
2018-04-22T07:23:05.654Z,49.92
2018-04-22T07:24:05.769Z,49.80
2018-04-22T07:25:58.731Z,49.82
2018-04-22T07:26:58.796Z,50.04
2018-04-22T07:28:51.796Z,49.90
2018-04-22T07:29:51.867Z,51.32
2018-04-22T07:31:44.917Z,51.47
2018-04-22T07:32:44.953Z,49.29
2018-04-22T07:34:37.961Z,47.91
2018-04-22T07:35:38.027Z,48.76
2018-04-22T07:37:31.040Z,49.85
2018-04-22T07:38:31.105Z,49.17
2018-04-22T07:40:24.114Z,50.12
2018-04-22T07:41:24.179Z,49.65
2018-04-22T07:43:17.183Z,48.25
2018-04-22T07:44:17.256Z,47.69
2018-04-22T07:46:10.266Z,46.62
2018-04-22T07:47:10.333Z,45.78
2018-04-22T07:49:03.343Z,46.48
2018-04-22T07:50:03.413Z,45.65
2018-04-22T07:51:56.431Z,45.99
2018-04-22T07:52:56.496Z,45.24
2018-04-22T07:54:49.512Z,45.12
2018-04-22T07:55:49.587Z,45.31
2018-04-22T07:57:42.600Z,44.90
2018-04-22T07:58:42.663Z,45.75
2018-04-22T08:00:35.688Z,47.69
2018-04-22T08:01:35.746Z,46.86
2018-04-22T08:03:28.756Z,43.75
2018-04-22T08:04:28.876Z,42.97
2018-04-22T08:06:21.858Z,43.85
2018-04-22T08:07:21.925Z,43.99
2018-04-22T08:09:14.940Z,43.63
2018-04-22T08:10:16.731Z,44.04
2018-04-22T08:12:08.025Z,44.31
2018-04-22T08:13:08.092Z,45.21
2018-04-22T08:15:01.100Z,43.67
2018-04-22T08:16:01.180Z,43.62
2018-04-22T08:17:54.190Z,42.14
2018-04-22T08:18:54.401Z,43.29
2018-04-22T08:20:47.280Z,43.79
2018-04-22T08:21:47.345Z,44.13
2018-04-22T08:23:41.861Z,41.52
2018-04-22T08:24:41.930Z,42.05
2018-04-22T08:26:34.956Z,39.82
2018-04-22T08:27:35.020Z,40.64
2018-04-22T08:29:28.033Z,42.63
2018-04-22T08:30:28.108Z,43.81
2018-04-22T08:32:21.129Z,42.57
2018-04-22T08:33:21.250Z,42.08
2018-04-22T08:35:14.217Z,44.04
2018-04-22T08:36:14.286Z,43.89
2018-04-22T08:38:07.305Z,43.37
2018-04-22T08:39:07.377Z,41.32
2018-04-22T08:41:00.404Z,40.88
2018-04-22T08:42:00.468Z,41.48
2018-04-22T08:43:53.485Z,39.90
2018-04-22T08:44:53.561Z,41.63
2018-04-22T08:46:46.583Z,40.66
2018-04-22T08:47:46.652Z,41.95
2018-04-22T08:49:39.666Z,41.52
2018-04-22T08:50:39.767Z,41.71
2018-04-22T08:52:32.763Z,41.85
2018-04-22T08:53:32.834Z,41.31
2018-04-22T08:55:25.849Z,39.80
2018-04-22T08:56:25.926Z,38.90
2018-04-22T08:58:18.953Z,40.84
2018-04-22T08:59:19.016Z,40.39
2018-04-22T09:01:12.044Z,38.73
2018-04-22T09:02:12.113Z,39.14
2018-04-22T09:04:05.140Z,39.37
2018-04-22T09:05:05.206Z,40.60
2018-04-22T09:06:58.231Z,41.35
2018-04-22T09:07:58.301Z,41.61
2018-04-22T09:09:51.326Z,41.46
2018-04-22T09:10:51.456Z,41.48
2018-04-22T09:12:44.435Z,40.63
2018-04-22T09:13:44.500Z,41.13
2018-04-22T09:15:37.540Z,44.15
2018-04-22T09:16:37.592Z,44.13
2018-04-22T09:18:30.624Z,46.42
2018-04-22T09:19:30.695Z,47.54
2018-04-22T09:21:23.723Z,52.13
2018-04-22T09:22:23.795Z,52.33
2018-04-22T09:24:16.810Z,52.03
2018-04-22T09:25:16.885Z,51.65
2018-04-22T09:27:09.909Z,53.85
2018-04-22T09:28:09.977Z,54.05
2018-04-22T09:30:02.988Z,53.53
2018-04-22T09:31:03.058Z,54.80
2018-04-22T09:32:56.072Z,54.48
2018-04-22T09:33:56.137Z,55.44
2018-04-22T09:35:49.148Z,55.52
2018-04-22T09:36:49.220Z,56.23
2018-04-22T09:38:42.229Z,54.94
2018-04-22T09:39:42.305Z,55.42
2018-04-22T09:41:35.313Z,57.87
2018-04-22T09:42:35.370Z,57.58
2018-04-22T09:44:28.382Z,56.81
2018-04-22T09:45:28.444Z,55.93
2018-04-22T09:47:21.455Z,56.13
2018-04-22T09:48:21.519Z,58.26
2018-04-22T09:50:14.525Z,55.06
2018-04-22T09:51:14.595Z,57.09
2018-04-22T09:53:07.606Z,60.75
2018-04-22T09:54:07.671Z,59.42
2018-04-22T09:56:00.677Z,57.65
2018-04-22T09:57:00.750Z,60.30
2018-04-22T09:58:53.759Z,58.94
2018-04-22T09:59:53.821Z,57.17
2018-04-22T10:01:46.828Z,57.68
2018-04-22T10:02:46.891Z,58.16
2018-04-22T10:04:39.894Z,56.23
2018-04-22T10:05:39.962Z,57.00
2018-04-22T10:07:32.973Z,56.71
2018-04-22T10:08:33.036Z,57.84
2018-04-22T10:10:26.036Z,58.72
2018-04-22T10:11:26.105Z,56.36
2018-04-22T10:13:19.116Z,62.01
2018-04-22T10:14:19.180Z,59.39
2018-04-22T10:16:12.183Z,62.01
2018-04-22T10:17:12.251Z,60.36
2018-04-22T10:19:05.260Z,58.26
2018-04-22T10:20:05.325Z,60.39
2018-04-22T10:21:58.358Z,59.33
2018-04-22T10:22:58.391Z,60.36
2018-04-22T10:24:51.397Z,59.42
2018-04-22T10:25:51.461Z,63.69
2018-04-22T10:27:44.478Z,61.55
2018-04-22T10:28:44.532Z,58.36
2018-04-22T10:30:37.534Z,58.45
2018-04-22T10:31:37.603Z,58.26
2018-04-22T10:33:30.614Z,60.20
2018-04-22T10:34:30.675Z,64.50
2018-04-22T10:36:23.683Z,57.87
2018-04-22T10:37:23.749Z,57.29
2018-04-22T10:39:16.759Z,58.36
2018-04-22T10:40:16.823Z,56.32
2018-04-22T10:42:09.831Z,57.68
2018-04-22T10:43:09.893Z,58.06
2018-04-22T10:45:02.907Z,57.58
2018-04-22T10:46:02.971Z,59.94
2018-04-22T10:47:55.981Z,57.32
2018-04-22T10:48:56.042Z,57.03
2018-04-22T10:50:49.058Z,55.08
2018-04-22T10:51:49.114Z,57.90
2018-04-22T10:53:42.119Z,59.45
2018-04-22T10:54:42.182Z,59.48
2018-04-22T10:56:35.191Z,57.03
2018-04-22T10:57:35.260Z,57.64
2018-04-22T10:59:28.269Z,57.70
2018-04-22T11:00:28.330Z,58.03
2018-04-22T11:02:21.842Z,56.25
2018-04-22T11:03:21.907Z,62.19
2018-04-22T11:05:14.911Z,57.44
2018-04-22T11:06:14.978Z,56.57
2018-04-22T11:08:07.986Z,54.85
2018-04-22T11:09:08.050Z,54.44
2018-04-22T11:11:01.043Z,53.00
2018-04-22T11:12:01.125Z,51.62
2018-04-22T11:13:54.131Z,53.78
2018-04-22T11:14:54.189Z,54.07
2018-04-22T11:16:47.189Z,51.62
2018-04-22T11:17:47.257Z,51.72
2018-04-22T11:19:40.265Z,50.58
2018-04-22T11:20:40.329Z,50.29
2018-04-22T11:22:33.387Z,51.48
2018-04-22T11:23:33.401Z,49.61
2018-04-22T11:25:26.405Z,48.57
2018-04-22T11:26:26.470Z,48.18
2018-04-22T11:28:19.482Z,48.78
2018-04-22T11:29:19.543Z,47.91
2018-04-22T11:31:12.549Z,45.18
2018-04-22T11:32:12.620Z,46.74
2018-04-22T11:34:05.632Z,45.40
2018-04-22T11:35:05.701Z,47.64
2018-04-22T11:36:58.704Z,46.28
2018-04-22T11:37:58.775Z,45.11
2018-04-22T11:39:51.783Z,45.21
2018-04-22T11:40:51.847Z,46.47
2018-04-22T11:42:44.866Z,47.54
2018-04-22T11:43:44.924Z,45.97
2018-04-22T11:45:37.924Z,45.87
2018-04-22T11:46:37.997Z,45.57
2018-04-22T11:48:31.009Z,45.57
2018-04-22T11:49:31.069Z,46.42
2018-04-22T11:51:24.078Z,47.49
2018-04-22T11:52:24.147Z,46.81
2018-04-22T11:54:17.163Z,47.18
2018-04-22T11:55:17.225Z,47.59
2018-04-22T11:57:10.232Z,45.94
2018-04-22T11:58:10.299Z,46.42
2018-04-22T12:00:03.314Z,47.03
2018-04-22T12:01:03.372Z,44.02
2018-04-22T12:02:56.382Z,43.82
2018-04-22T12:03:56.443Z,44.21
2018-04-22T12:05:49.457Z,42.66
2018-04-22T12:06:49.515Z,45.48
2018-04-22T12:08:42.527Z,43.44
2018-04-22T12:09:42.590Z,43.82
2018-04-22T12:11:35.598Z,43.75
2018-04-22T12:12:35.668Z,43.46
2018-04-22T12:14:28.677Z,43.44
2018-04-22T12:15:28.741Z,42.56
2018-04-22T12:17:21.742Z,42.76
2018-04-22T12:18:21.811Z,43.71
2018-04-22T12:20:14.820Z,43.41
2018-04-22T12:21:14.885Z,45.07
2018-04-22T12:23:08.401Z,45.94
2018-04-22T12:24:08.465Z,45.07
2018-04-22T12:26:01.466Z,42.93
2018-04-22T12:27:01.536Z,44.31
2018-04-22T12:28:54.545Z,42.85
2018-04-22T12:29:54.610Z,42.95
2018-04-22T12:31:47.617Z,45.18
2018-04-22T12:32:47.689Z,44.70
2018-04-22T12:34:40.696Z,45.38
2018-04-22T12:35:40.757Z,45.18
2018-04-22T12:37:33.757Z,45.09
2018-04-22T12:38:33.827Z,45.18
2018-04-22T12:40:26.835Z,42.56
2018-04-22T12:41:26.901Z,42.56
2018-04-22T12:43:19.914Z,45.67
2018-04-22T12:44:19.974Z,45.28
2018-04-22T12:46:12.982Z,43.05
2018-04-22T12:47:13.057Z,44.12
2018-04-22T12:49:06.063Z,44.12
2018-04-22T12:50:06.125Z,44.29
2018-04-22T12:51:59.124Z,44.21
2018-04-22T12:52:59.195Z,42.56
2018-04-22T12:54:52.206Z,43.44
2018-04-22T12:55:52.268Z,42.36
2018-04-22T12:57:45.274Z,42.87
2018-04-22T12:58:45.338Z,41.39
2018-04-22T13:00:38.350Z,41.49
2018-04-22T13:01:38.416Z,42.78
2018-04-22T13:03:31.425Z,43.26
2018-04-22T13:04:31.488Z,44.24
2018-04-22T13:06:24.495Z,40.25
2018-04-22T13:07:24.564Z,41.22
2018-04-22T13:09:17.573Z,39.96
2018-04-22T13:10:17.633Z,39.45
2018-04-22T13:12:10.634Z,39.36
2018-04-22T13:13:10.710Z,39.45
2018-04-22T13:15:03.712Z,40.81
2018-04-22T13:16:03.778Z,42.56
2018-04-22T13:17:56.784Z,42.85
2018-04-22T13:18:56.860Z,42.78
2018-04-22T13:20:49.869Z,41.13
2018-04-22T13:21:49.932Z,41.03
2018-04-22T13:23:43.455Z,41.98
2018-04-22T13:24:43.515Z,42.85
2018-04-22T13:26:36.522Z,42.56
2018-04-22T13:27:36.589Z,42.93
2018-04-22T13:29:29.601Z,43.41
2018-04-22T13:30:29.664Z,41.96
2018-04-22T13:32:22.668Z,42.81
2018-04-22T13:33:22.735Z,43.78
2018-04-22T13:35:15.742Z,43.98
2018-04-22T13:36:15.831Z,43.88
2018-04-22T13:38:08.813Z,45.92
2018-04-22T13:39:08.877Z,45.14
2018-04-22T13:41:01.893Z,45.43
2018-04-22T13:42:01.952Z,45.04
2018-04-22T13:43:54.962Z,46.31
2018-04-22T13:44:55.022Z,46.89
2018-04-22T13:46:48.043Z,45.92
2018-04-22T13:47:48.296Z,45.62
2018-04-22T13:49:41.106Z,45.51
2018-04-22T13:50:41.169Z,46.28
2018-04-22T13:52:34.170Z,46.86
2018-04-22T13:53:34.241Z,46.38
2018-04-22T13:55:27.246Z,48.22
2018-04-22T13:56:27.309Z,47.72
2018-04-22T13:58:20.822Z,48.00
2018-04-22T13:59:20.891Z,48.00
2018-04-22T14:01:13.902Z,47.20
2018-04-22T14:02:13.959Z,46.82
2018-04-22T14:04:07.028Z,48.93
2018-04-22T14:05:07.032Z,50.77
2018-04-22T14:07:00.036Z,51.74
2018-04-22T14:08:00.176Z,53.87
2018-04-22T14:09:53.173Z,53.49
2018-04-22T14:10:53.236Z,54.84
2018-04-22T14:12:46.246Z,51.67
2018-04-22T14:13:46.385Z,55.06
2018-04-22T14:15:39.318Z,51.86
2018-04-22T14:16:39.387Z,51.47
2018-04-22T14:18:32.379Z,53.15
2018-04-22T14:19:32.453Z,51.50
2018-04-22T14:21:25.462Z,49.68
2018-04-22T14:22:25.525Z,48.71
2018-04-22T14:24:18.536Z,51.43
2018-04-22T14:25:18.626Z,53.17
2018-04-22T14:27:11.602Z,49.80
2018-04-22T14:28:11.671Z,48.22
2018-04-22T14:30:04.680Z,46.58
2018-04-22T14:31:04.748Z,47.93
2018-04-22T14:32:57.756Z,48.05
2018-04-22T14:33:57.820Z,46.31
2018-04-22T14:35:50.826Z,44.75
2018-04-22T14:36:50.893Z,43.88
2018-04-22T14:38:43.901Z,43.98
2018-04-22T14:39:43.968Z,44.56
2018-04-22T14:41:36.972Z,42.03
2018-04-22T14:42:37.035Z,43.02
2018-04-22T14:44:30.044Z,39.32
2018-04-22T14:45:30.112Z,40.58
2018-04-22T14:47:23.113Z,41.26
2018-04-22T14:48:23.211Z,40.58
2018-04-22T14:50:16.187Z,40.58
2018-04-22T14:51:16.251Z,42.33
2018-04-22T14:53:09.272Z,41.36
2018-04-22T14:54:09.330Z,40.77
2018-04-22T14:56:02.426Z,41.06
2018-04-22T14:57:02.404Z,40.97
2018-04-22T14:59:07.084Z,41.26
2018-04-22T15:00:07.148Z,41.94
2018-04-22T15:02:00.166Z,41.64
2018-04-22T15:03:00.236Z,42.91
2018-04-22T15:04:53.240Z,43.01
2018-04-22T15:05:53.304Z,43.10
2018-04-22T15:07:46.310Z,43.40
2018-04-22T15:08:46.380Z,43.20
2018-04-22T15:10:39.384Z,43.40
2018-04-22T15:11:39.453Z,44.37
2018-04-22T15:13:32.459Z,46.31
2018-04-22T15:14:32.523Z,46.38
2018-04-22T15:16:25.531Z,47.76
2018-04-22T15:17:25.592Z,47.47
2018-04-22T15:19:18.600Z,48.25
2018-04-22T15:20:18.667Z,47.57
2018-04-22T15:22:11.673Z,47.96
2018-04-22T15:23:11.740Z,49.02
2018-04-22T15:25:04.811Z,49.87
2018-04-22T15:26:04.813Z,49.97
2018-04-22T15:27:57.813Z,50.14
2018-04-22T15:28:57.883Z,51.57
2018-04-22T15:30:50.890Z,53.12
2018-04-22T15:31:50.956Z,53.99
2018-04-22T15:33:43.960Z,56.77
2018-04-22T15:34:44.031Z,56.87
2018-04-22T15:36:37.033Z,57.75
2018-04-22T15:37:37.097Z,57.75
2018-04-22T15:39:30.104Z,56.20
2018-04-22T15:40:30.167Z,55.88
2018-04-22T15:42:23.174Z,56.26
2018-04-22T15:43:23.238Z,56.16
2018-04-22T15:45:16.253Z,55.30
2018-04-22T15:46:16.313Z,55.30
2018-04-22T15:48:09.315Z,55.00
2018-04-22T15:49:09.386Z,55.20
2018-04-22T15:51:02.417Z,54.43
2018-04-22T15:52:02.462Z,54.71
2018-04-22T15:53:55.463Z,54.43
2018-04-22T15:54:55.524Z,55.40
2018-04-22T15:56:48.530Z,58.20
2018-04-22T15:57:48.587Z,58.11
2018-04-22T15:59:42.106Z,56.24
2018-04-22T16:00:42.171Z,55.66
2018-04-22T16:02:35.188Z,56.24
2018-04-22T16:03:35.245Z,57.69
2018-04-22T16:05:28.256Z,58.85
2018-04-22T16:06:28.315Z,58.82
2018-04-22T16:08:21.365Z,62.40
2018-04-22T16:09:22.333Z,62.88
2018-04-22T16:11:14.395Z,64.24
2018-04-22T16:12:14.458Z,65.40
2018-04-22T16:14:07.539Z,67.63
2018-04-22T16:15:07.533Z,68.79
2018-04-22T16:17:00.538Z,70.53
2018-04-22T16:18:00.600Z,70.34
2018-04-22T16:19:53.604Z,71.66
2018-04-22T16:20:53.668Z,72.42
2018-04-22T16:22:46.683Z,72.62
2018-04-22T16:23:46.744Z,72.62
2018-04-22T16:25:39.767Z,72.42
2018-04-22T16:26:39.836Z,68.27
2018-04-22T16:28:32.832Z,65.92
2018-04-22T16:29:32.900Z,63.21
2018-04-22T16:31:25.916Z,64.85
2018-04-22T16:32:25.980Z,62.82
2018-04-22T16:34:18.985Z,62.89
2018-04-22T16:35:19.125Z,64.92
2018-04-22T16:37:12.065Z,65.01
2018-04-22T16:38:12.121Z,64.24
2018-04-22T16:40:05.126Z,66.36
2018-04-22T16:41:05.192Z,66.36
2018-04-22T16:42:58.205Z,67.04
2018-04-22T16:43:58.261Z,67.43
2018-04-22T16:45:51.278Z,68.88
2018-04-22T16:46:51.337Z,67.33
2018-04-22T16:48:44.335Z,68.10
2018-04-22T16:49:44.396Z,68.49
2018-04-22T16:51:37.411Z,69.74
2018-04-22T16:52:37.471Z,71.20
2018-04-22T16:54:30.477Z,71.64
2018-04-22T16:55:30.553Z,71.64
2018-04-22T16:57:23.544Z,72.80
2018-04-22T16:58:23.604Z,73.28
2018-04-22T17:00:16.608Z,73.77
2018-04-22T17:01:16.725Z,74.16
2018-04-22T17:03:09.686Z,73.96
2018-04-22T17:04:09.739Z,74.44
2018-04-22T17:06:02.754Z,74.60
2018-04-22T17:07:02.807Z,74.89
2018-04-22T17:08:55.821Z,75.37
2018-04-22T17:09:55.885Z,75.09
2018-04-22T17:11:48.896Z,75.57
2018-04-22T17:12:48.958Z,75.37
2018-04-22T17:14:41.956Z,75.27
2018-04-22T17:15:42.023Z,76.05
2018-04-22T17:17:35.049Z,75.95
2018-04-22T17:18:35.386Z,75.67
2018-04-22T17:20:28.108Z,76.43
2018-04-22T17:21:28.175Z,76.05
2018-04-22T17:23:21.193Z,75.14
2018-04-22T17:24:21.237Z,75.57
2018-04-22T17:26:14.256Z,75.85
2018-04-22T17:27:14.311Z,75.92
2018-04-22T17:29:07.330Z,75.82
2018-04-22T17:30:07.390Z,76.20
2018-04-22T17:32:00.400Z,75.72
2018-04-22T17:33:00.776Z,76.30
2018-04-22T17:34:53.456Z,75.92
2018-04-22T17:35:53.520Z,76.59
2018-04-22T17:37:46.524Z,76.84
2018-04-22T17:38:46.584Z,76.45
2018-04-22T17:40:39.589Z,77.03
2018-04-22T17:41:39.650Z,76.93
2018-04-22T17:43:32.656Z,76.84
2018-04-22T17:44:32.899Z,76.93
2018-04-22T17:46:25.717Z,76.93
2018-04-22T17:47:25.778Z,76.75
2018-04-22T17:49:18.780Z,76.84
2018-04-22T17:50:18.849Z,76.75
2018-04-22T17:52:11.848Z,77.13
2018-04-22T17:53:11.911Z,76.84
2018-04-22T17:55:04.908Z,76.93
2018-04-22T17:56:04.974Z,77.28
2018-04-22T17:57:57.979Z,77.48
2018-04-22T17:58:58.038Z,77.48
2018-04-22T18:00:51.042Z,77.38
2018-04-22T18:01:51.117Z,77.58
2018-04-22T18:03:44.111Z,77.58
2018-04-22T18:04:44.172Z,77.67
2018-04-22T18:06:37.182Z,77.38
2018-04-22T18:07:37.266Z,77.38
2018-04-22T18:09:30.250Z,77.48
2018-04-22T18:10:30.311Z,77.28
2018-04-22T18:12:23.320Z,77.06
2018-04-22T18:13:23.385Z,77.25
2018-04-22T18:15:16.380Z,77.06
2018-04-22T18:16:16.449Z,77.15
2018-04-22T18:18:09.446Z,77.15
2018-04-22T18:19:09.506Z,77.15
2018-04-22T18:21:02.509Z,77.06
2018-04-22T18:22:02.568Z,76.96
2018-04-22T18:23:55.576Z,77.48
2018-04-22T18:24:55.636Z,76.90
2018-04-22T18:26:48.637Z,77.38
2018-04-22T18:27:48.720Z,76.76
2018-04-22T18:29:41.701Z,76.96
2018-04-22T18:30:41.779Z,77.06
2018-04-22T18:32:34.778Z,77.15
2018-04-22T18:33:34.841Z,77.44
2018-04-22T18:35:27.835Z,77.00